Time;durP1;ratioP1;P1;durP2;ratioP2;P2;SDS_P1;SDS_P2;PMS_P1;PMS_P2;Temp;Humidity;BMP_temperature;BMP_pressure;BME280_temperature;BME280_humidity;BME280_pressure;Samples;Min_cycle;Max_cycle;Signal;HPM_P1;HPM_P2
2023/03/06 00:04:48;;;;;;;0.10;0.10;;;;;;;1.88;nan;100504.53;9999819;29;20050;-86
2023/03/06 00:11:13;;;;;;;0.38;0.30;;;;;;;1.67;nan;100519.91;9998712;29;20045;-87
2023/03/06 00:17:10;;;;;;;0.20;0.20;;;;;;;1.22;nan;100517.69;9982004;29;20081;-87
2023/03/06 00:22:56;;;;;;;0.10;0.10;;;;;;;0.87;nan;100507.34;9998283;29;20126;-87
2023/03/06 00:34:55;;;;;;;0.75;0.52;;;;;;;0.58;nan;100492.06;10117539;29;20114;-88
2023/03/06 00:46:42;;;;;;;0.10;0.10;;;;;;;0.39;nan;100482.47;10140429;29;20059;-88
2023/03/06 00:57:39;;;;;;;0.45;0.43;;;;;;;0.24;nan;100483.44;10137913;29;20394;-88
2023/03/06 01:02:48;;;;;;;;;;;;;;;0.28;nan;100480.19;10110067;29;20048;-87
2023/03/06 01:08:08;;;;;;;0.22;0.22;;;;;;;0.31;nan;100488.06;10139254;29;19931;-87
2023/03/06 01:14:18;;;;;;;0.45;0.45;;;;;;;0.30;nan;100485.41;10091994;29;20075;-86
2023/03/06 01:19:28;;;;;;;0.20;0.20;;;;;;;0.27;nan;100469.81;10138565;29;20112;-86
2023/03/06 01:24:51;;;;;;;0.22;0.22;;;;;;;0.20;nan;100455.72;10167592;29;20045;-86
2023/03/06 01:30:12;;;;;;;0.63;0.63;;;;;;;-147.53;100.00;57128.34;10162307;29;20061;-87
2023/03/06 01:35:25;;;;;;;0.20;0.20;;;;;;;-147.53;100.00;57128.34;10106864;29;20064;-85
2023/03/06 01:40:29;;;;;;;0.30;0.30;;;;;;;-147.53;100.00;57128.34;10138352;29;20095;-86
2023/03/06 01:45:33;;;;;;;0.20;0.20;;;;;;;-147.53;100.00;57128.34;10109716;29;20055;-86
2023/03/06 01:50:36;;;;;;;0.10;0.10;;;;;;;-147.53;100.00;57128.34;10126051;29;20139;-85
2023/03/06 01:55:38;;;;;;;0.10;0.10;;;;;;;-147.53;100.00;57128.34;10129262;29;20052;-86
2023/03/06 02:00:39;;;;;;;0.30;0.22;;;;;;;-147.53;100.00;57128.34;10110602;29;20057;-85
2023/03/06 02:05:41;;;;;;;0.77;0.45;;;;;;;-147.53;100.00;57128.34;10107362;29;20384;-85
2023/03/06 02:11:14;;;;;;;0.28;0.22;;;;;;;-147.53;100.00;57128.34;10138405;29;20056;-84
2023/03/06 02:16:17;;;;;;;0.57;0.30;;;;;;;-147.53;100.00;57128.34;10125954;29;20510;-83
2023/03/06 02:21:24;;;;;;;0.10;0.10;;;;;;;-147.53;100.00;57128.34;10124001;29;20470;-84
2023/03/06 02:26:27;;;;;;;0.50;0.30;;;;;;;-147.53;100.00;57128.34;10122865;29;20056;-84
2023/03/06 02:31:32;;;;;;;0.28;0.28;;;;;;;-147.53;100.00;57128.34;10106229;29;20048;-84
2023/03/06 02:36:39;;;;;;;0.20;0.20;;;;;;;-147.53;100.00;57128.34;10123108;29;20978;-84
2023/03/06 02:41:41;;;;;;;0.30;0.30;;;;;;;-147.53;100.00;57128.34;10137140;29;20052;-84
2023/03/06 02:46:42;;;;;;;0.20;0.20;;;;;;;-147.53;100.00;57128.34;10121477;29;20056;-84
2023/03/06 02:51:44;;;;;;;0.20;0.20;;;;;;;-147.53;100.00;57128.34;10121619;29;20053;-84
2023/03/06 02:56:46;;;;;;;0.20;0.20;;;;;;;-147.53;100.00;57128.34;10103359;29;20371;-83
2023/03/06 03:01:47;;;;;;;0.10;0.10;;;;;;;-147.53;100.00;57128.34;10116200;29;20132;-84
2023/03/06 03:06:49;;;;;;;0.40;0.30;;;;;;;-147.53;100.00;57128.34;10129435;29;20118;-84
2023/03/06 03:11:52;;;;;;;0.22;0.17;;;;;;;-147.53;100.00;57128.34;10099919;29;20564;-84
2023/03/06 03:16:54;;;;;;;0.10;0.10;;;;;;;-147.53;100.00;57128.34;10103583;29;20121;-85
2023/03/06 03:21:57;;;;;;;0.93;0.82;;;;;;;-147.53;100.00;57128.34;10135464;29;20160;-83
2023/03/06 03:26:59;;;;;;;0.20;0.20;;;;;;;-147.53;100.00;57128.34;10106489;29;20052;-84
2023/03/06 03:32:01;;;;;;;0.20;0.20;;;;;;;-147.53;100.00;57128.34;10104276;29;20083;-85
2023/03/06 03:37:03;;;;;;;0.30;0.30;;;;;;;-147.53;100.00;57128.34;10103395;29;20269;-85
2023/03/06 03:42:05;;;;;;;0.20;0.20;;;;;;;-147.53;100.00;57128.34;10104827;29;20056;-84
2023/03/06 03:47:07;;;;;;;0.30;0.30;;;;;;;-147.53;100.00;57128.34;10124982;29;20106;-84
2023/03/06 03:52:09;;;;;;;0.40;0.40;;;;;;;-147.53;100.00;57128.34;10141967;29;20100;-84
2023/03/06 03:57:13;;;;;;;0.10;0.10;;;;;;;-147.53;100.00;57128.34;10143521;29;20123;-85
2023/03/06 04:02:20;;;;;;;0.20;0.20;;;;;;;-147.53;100.00;57128.34;10121400;29;20121;-85
2023/03/06 04:07:34;;;;;;;0.15;0.15;;;;;;;-147.53;100.00;57128.34;10133000;29;20063;-85
2023/03/06 04:12:36;;;;;;;0.10;0.10;;;;;;;-147.53;100.00;57128.34;10102745;29;20049;-84
2023/03/06 04:17:38;;;;;;;0.10;0.10;;;;;;;-147.53;100.00;57128.34;10101237;29;20049;-83
2023/03/06 04:22:44;;;;;;;0.20;0.20;;;;;;;-147.53;100.00;57128.34;10102051;29;20045;-84
2023/03/06 04:27:46;;;;;;;0.25;0.25;;;;;;;-147.53;100.00;57128.34;10101144;29;20040;-85
2023/03/06 04:32:48;;;;;;;0.20;0.20;;;;;;;-147.53;100.00;57128.34;10133084;29;20052;-84
2023/03/06 04:37:50;;;;;;;0.30;0.30;;;;;;;-147.53;100.00;57128.34;10100588;29;20055;-83
2023/03/06 04:42:55;;;;;;;0.20;0.20;;;;;;;-147.53;100.00;57128.34;10133118;29;20160;-83
2023/03/06 04:47:57;;;;;;;0.40;0.40;;;;;;;-147.53;100.00;57128.34;10117812;29;20052;-82
2023/03/06 04:53:10;;;;;;;0.10;0.10;;;;;;;-147.53;100.00;57128.34;10132817;29;20091;-85
2023/03/06 04:58:47;;;;;;;0.20;0.20;;;;;;;-147.53;100.00;57128.34;10104563;29;20048;-86
2023/03/06 05:04:08;;;;;;;0.10;0.10;;;;;;;-147.53;100.00;57128.34;10131996;29;20549;-85
2023/03/06 05:09:27;;;;;;;0.20;0.20;;;;;;;-147.53;100.00;57128.34;10097100;29;20061;-85
2023/03/06 05:14:54;;;;;;;0.20;0.20;;;;;;;-147.53;100.00;57128.34;10111502;29;20125;-85
2023/03/06 05:20:20;;;;;;;0.10;0.10;;;;;;;-147.53;100.00;57128.34;10105728;29;20052;-86
2023/03/06 05:25:43;;;;;;;0.30;0.30;;;;;;;-147.53;100.00;57128.34;10091215;29;20152;-85
2023/03/06 05:30:55;;;;;;;0.10;0.10;;;;;;;-147.53;100.00;57128.34;10106527;29;20080;-85
2023/03/06 05:36:09;;;;;;;0.25;0.25;;;;;;;-147.53;100.00;57128.34;10109040;29;20076;-85
2023/03/06 05:41:23;;;;;;;3.40;0.40;;;;;;;-147.53;100.00;57128.34;10107905;29;20430;-85
2023/03/06 05:46:36;;;;;;;0.65;0.52;;;;;;;-147.53;100.00;57128.34;10108284;29;20496;-85
2023/03/06 05:51:42;;;;;;;0.30;0.30;;;;;;;-147.53;100.00;57128.34;10107406;29;20053;-85
2023/03/06 05:56:46;;;;;;;0.55;0.55;;;;;;;-147.53;100.00;57128.34;10138205;29;20089;-85
2023/03/06 06:01:52;;;;;;;0.80;0.80;;;;;;;-147.53;100.00;57128.34;10108865;29;20524;-85
2023/03/06 06:07:19;;;;;;;0.13;0.13;;;;;;;-147.53;100.00;57128.34;10125652;29;20064;-86
2023/03/06 06:12:26;;;;;;;0.10;0.10;;;;;;;-147.53;100.00;57128.34;10131564;29;20214;-85
2023/03/06 06:17:33;;;;;;;1.38;1.17;;;;;;;-147.53;100.00;57128.34;10107704;29;20147;-85
2023/03/06 06:22:40;;;;;;;0.52;0.52;;;;;;;-147.53;100.00;57128.34;10129122;29;21566;-85
2023/03/06 06:27:49;;;;;;;0.20;0.20;;;;;;;-147.53;100.00;57128.34;10156092;29;20621;-85
2023/03/06 06:32:58;;;;;;;0.47;0.40;;;;;;;-147.53;100.00;57128.34;10147138;29;20135;-85
2023/03/06 06:38:07;;;;;;;0.73;0.73;;;;;;;-147.53;100.00;57128.34;10125837;29;20099;-85
2023/03/06 06:43:12;;;;;;;1.00;0.82;;;;;;;-147.53;100.00;57128.34;10136809;29;20121;-86
2023/03/06 06:48:17;;;;;;;0.75;0.73;;;;;;;-147.53;100.00;57128.34;10104774;29;20589;-85
2023/03/06 06:53:24;;;;;;;0.50;0.50;;;;;;;-147.53;100.00;57128.34;10118669;29;20067;-86
2023/03/06 06:58:38;;;;;;;1.88;0.93;;;;;;;-147.53;100.00;57128.34;10104605;29;20060;-85
2023/03/06 07:03:40;;;;;;;0.20;0.20;;;;;;;-147.53;100.00;57128.34;10119965;29;20061;-86
2023/03/06 07:08:51;;;;;;;0.40;0.40;;;;;;;-147.53;100.00;57128.34;10103936;29;20053;-87
2023/03/06 07:14:14;;;;;;;0.40;0.40;;;;;;;-147.53;100.00;57128.34;10117182;29;20056;-86
2023/03/06 07:19:21;;;;;;;0.10;0.10;;;;;;;-147.53;100.00;57128.34;10109535;29;20521;-86
2023/03/06 07:24:23;;;;;;;0.70;0.70;;;;;;;-147.53;100.00;57128.34;10124763;29;20052;-87
2023/03/06 07:29:28;;;;;;;0.20;0.20;;;;;;;-147.53;100.00;57128.34;10118808;29;20333;-86
2023/03/06 07:34:33;;;;;;;1.30;1.15;;;;;;;-147.53;100.00;57128.34;10125069;29;20120;-86
2023/03/06 07:39:44;;;;;;;0.47;0.45;;;;;;;-147.53;100.00;57128.34;10133944;29;20116;-86
2023/03/06 07:44:49;;;;;;;0.20;0.20;;;;;;;-147.53;100.00;57128.34;10100274;29;20056;-85
2023/03/06 07:49:57;;;;;;;0.35;0.35;;;;;;;-147.53;100.00;57128.34;10118514;29;20049;-86
2023/03/06 07:55:26;;;;;;;0.32;0.17;;;;;;;-147.53;100.00;57128.34;10133281;29;20052;-86
2023/03/06 08:00:44;;;;;;;0.10;0.10;;;;;;;-147.53;100.00;57128.34;10101056;29;20052;-87
2023/03/06 08:06:10;;;;;;;1.00;0.73;;;;;;;-147.53;100.00;57128.34;10105108;29;20057;-86
2023/03/06 08:11:24;;;;;;;0.20;0.15;;;;;;;-147.53;100.00;57128.34;10122832;29;20057;-86
2023/03/06 08:16:50;;;;;;;0.55;0.50;;;;;;;-147.53;100.00;57128.34;10111346;29;20268;-87
2023/03/06 08:22:06;;;;;;;0.30;0.20;;;;;;;-147.53;100.00;57128.34;10138156;29;20049;-87
2023/03/06 08:27:22;;;;;;;0.20;0.20;;;;;;;-147.53;100.00;57128.34;10091749;29;20083;-87
2023/03/06 08:32:30;;;;;;;0.13;0.13;;;;;;;-147.53;100.00;57128.34;10104608;29;20063;-86
2023/03/06 08:37:31;;;;;;;0.28;0.28;;;;;;;-147.53;100.00;57128.34;10124692;29;20080;-86
2023/03/06 08:42:39;;;;;;;0.20;0.20;;;;;;;-147.53;100.00;57128.34;10131986;29;20105;-84
2023/03/06 08:47:43;;;;;;;0.38;0.38;;;;;;;-147.53;100.00;57128.34;10131211;29;20140;-85
2023/03/06 08:52:47;;;;;;;0.10;0.10;;;;;;;-147.53;100.00;57128.34;10119831;29;20059;-85
2023/03/06 08:57:50;;;;;;;0.10;0.10;;;;;;;-147.53;100.00;57128.34;10151994;29;20056;-84
2023/03/06 09:02:51;;;;;;;0.20;0.20;;;;;;;-147.53;100.00;57128.34;10164440;29;20067;-84
2023/03/06 09:07:53;;;;;;;1.15;0.90;;;;;;;-147.53;100.00;57128.34;10157833;29;20056;-84
2023/03/06 09:12:57;;;;;;;0.30;0.30;;;;;;;-147.53;100.00;57128.34;10114515;29;20524;-85
2023/03/06 09:17:59;;;;;;;0.57;0.57;;;;;;;-147.53;100.00;57128.34;10108458;29;20671;-84
2023/03/06 09:23:00;;;;;;;0.20;0.20;;;;;;;-147.53;100.00;57128.34;10140041;29;20053;-86
2023/03/06 09:28:02;;;;;;;0.22;0.22;;;;;;;-147.53;100.00;57128.34;10128172;29;20063;-84
2023/03/06 09:33:13;;;;;;;1.13;0.40;;;;;;;-147.53;100.00;57128.34;10125950;29;20056;-84
2023/03/06 09:38:16;;;;;;;0.13;0.13;;;;;;;-147.53;100.00;57128.34;10125146;29;20053;-85
2023/03/06 09:43:27;;;;;;;0.80;0.80;;;;;;;-147.53;100.00;57128.34;10106805;29;20105;-84
2023/03/06 09:49:00;;;;;;;1.02;0.40;;;;;;;-147.53;100.00;57128.34;10122199;29;20056;-88
2023/03/06 09:54:14;;;;;;;0.10;0.10;;;;;;;-147.53;100.00;57128.34;10138065;29;20458;-86
2023/03/06 09:59:20;;;;;;;0.10;0.10;;;;;;;-147.53;100.00;57128.34;10122973;29;20139;-86
2023/03/06 10:04:30;;;;;;;0.10;0.10;;;;;;;-147.53;100.00;57128.34;10115300;29;20083;-87
2023/03/06 10:09:46;;;;;;;0.47;0.47;;;;;;;-147.53;100.00;57128.34;10122376;29;20044;-86
2023/03/06 10:14:59;;;;;;;0.30;0.30;;;;;;;-147.53;100.00;57128.34;10105809;29;20045;-86
2023/03/06 10:20:26;;;;;;;0.43;0.43;;;;;;;-147.53;100.00;57128.34;10123637;29;20049;-88
2023/03/06 10:25:59;;;;;;;0.20;0.20;;;;;;;-147.53;100.00;57128.34;10118529;29;20064;-88
2023/03/06 10:31:25;;;;;;;0.13;0.13;;;;;;;-147.53;100.00;57128.34;10107463;29;20059;-89
2023/03/06 10:36:31;;;;;;;1.02;0.57;;;;;;;-147.53;100.00;57128.34;10104955;29;20064;-91
2023/03/06 10:41:43;;;;;;;0.30;0.30;;;;;;;-147.53;100.00;57128.34;10123720;29;20517;-90
2023/03/06 10:46:53;;;;;;;1.13;0.85;;;;;;;-147.53;100.00;57128.34;10106880;29;20129;-90
2023/03/06 10:52:15;;;;;;;;;;;;;;;-147.53;100.00;57128.34;10092293;29;20105;-90
2023/03/06 10:57:31;;;;;;;0.38;0.38;;;;;;;-147.53;100.00;57128.34;10116954;29;19931;-88
2023/03/06 11:02:40;;;;;;;0.35;0.30;;;;;;;-147.53;100.00;57128.34;10114468;29;20101;-89
2023/03/06 11:08:00;;;;;;;0.95;0.80;;;;;;;-147.53;100.00;57128.34;10096586;29;20426;-88
2023/03/06 11:13:24;;;;;;;0.55;0.55;;;;;;;-147.53;100.00;57128.34;10100386;29;20132;-88
2023/03/06 11:18:50;;;;;;;0.38;0.20;;;;;;;-147.53;100.00;57128.34;10115744;29;20072;-88
2023/03/06 11:24:03;;;;;;;0.20;0.20;;;;;;;-147.53;100.00;57128.34;10100484;29;20056;-87
2023/03/06 11:29:14;;;;;;;0.25;0.22;;;;;;;-147.53;100.00;57128.34;10104710;29;20052;-88
2023/03/06 11:35:34;;;;;;;0.83;0.30;;;;;;;-147.53;100.00;57128.34;10124975;29;20136;-90
2023/03/06 12:11:39;;;;;;;1.33;0.55;;;;;;;-147.53;100.00;57128.34;10189125;29;20071;-90
2023/03/06 12:17:32;;;;;;;;;;;;;;;-147.53;100.00;57128.34;10182110;29;20436;-90
2023/03/06 12:23:10;;;;;;;0.10;0.10;;;;;;;-147.53;100.00;57128.34;10176358;29;19927;-91
2023/03/06 12:53:55;;;;;;;0.10;0.10;;;;;;;-147.53;100.00;57128.34;10188085;28;20078;-89
2023/03/06 13:00:40;;;;;;;;;;;;;;;;;;;;;
2023/03/06 13:19:58;;;;;;;0.30;0.30;;;;;;;-147.53;100.00;57128.34;10025943;29;20041;-88
2023/03/06 13:33:28;;;;;;;0.10;0.10;;;;;;;-147.53;100.00;57128.34;9890346;29;20059;-89
2023/03/06 13:38:39;;;;;;;0.65;0.40;;;;;;;-147.53;100.00;57128.34;9952003;29;20120;-89
2023/03/06 13:43:58;;;;;;;0.40;0.30;;;;;;;-147.53;100.00;57128.34;9946206;29;20606;-87
2023/03/06 13:49:12;;;;;;;0.30;0.30;;;;;;;-147.53;100.00;57128.34;9964601;29;20062;-87
2023/03/06 13:54:38;;;;;;;0.50;0.50;;;;;;;-147.53;100.00;57128.34;9949621;29;20057;-88
2023/03/06 14:00:17;;;;;;;0.47;0.40;;;;;;;-147.53;100.00;57128.34;9995133;29;20057;-88
2023/03/06 14:05:20;;;;;;;0.45;0.30;;;;;;;-147.53;100.00;57128.34;10123535;29;20061;-86
2023/03/06 14:10:24;;;;;;;0.40;0.20;;;;;;;-147.53;100.00;57128.34;10114428;29;20053;-87
2023/03/06 14:15:38;;;;;;;0.20;0.20;;;;;;;-147.53;100.00;57128.34;10118612;29;20090;-88
2023/03/06 14:20:45;;;;;;;4.28;0.65;;;;;;;-147.53;100.00;57128.34;10122848;29;20112;-87
2023/03/06 14:25:54;;;;;;;0.30;0.20;;;;;;;-147.53;100.00;57128.34;10120497;29;20052;-87
2023/03/06 14:30:58;;;;;;;0.70;0.40;;;;;;;-147.53;100.00;57128.34;10121629;29;20057;-87
2023/03/06 14:36:03;;;;;;;0.15;0.15;;;;;;;-147.53;100.00;57128.34;10124304;29;20063;-87
2023/03/06 14:41:10;;;;;;;0.38;0.15;;;;;;;-147.53;100.00;57128.34;10123237;29;20057;-87
2023/03/06 14:46:20;;;;;;;0.10;0.10;;;;;;;-147.53;100.00;57128.34;10120753;29;20064;-87
2023/03/06 14:51:25;;;;;;;1.77;0.38;;;;;;;-147.53;100.00;57128.34;10108143;29;20052;-86
2023/03/06 14:57:05;;;;;;;0.22;0.22;;;;;;;-147.53;100.00;57128.34;10094411;29;20521;-88
2023/03/06 15:02:20;;;;;;;0.47;0.40;;;;;;;-147.53;100.00;57128.34;10092516;29;20053;-86
2023/03/06 15:07:26;;;;;;;0.20;0.20;;;;;;;-147.53;100.00;57128.34;10120121;29;20116;-83
2023/03/06 15:12:32;;;;;;;6.43;1.05;;;;;;;-147.53;100.00;57128.34;10121199;29;20052;-81
2023/03/06 15:17:43;;;;;;;1.05;0.47;;;;;;;-147.53;100.00;57128.34;10118429;29;20544;-80
2023/03/06 15:22:48;;;;;;;;;;;;;;;-147.53;100.00;57128.34;10115444;29;20397;-81
2023/03/06 15:27:59;;;;;;;0.10;0.10;;;;;;;-147.53;100.00;57128.34;10120153;29;19934;-82
2023/03/06 15:33:09;;;;;;;;;;;;;;;-147.53;100.00;57128.34;10120028;29;20052;-82
2023/03/06 15:38:32;;;;;;;0.10;0.10;;;;;;;-147.53;100.00;57128.34;10118740;29;19927;-82
2023/03/06 15:43:38;;;;;;;0.28;0.28;;;;;;;-147.53;100.00;57128.34;10114599;29;20336;-81
2023/03/06 15:48:57;;;;;;;0.75;0.70;;;;;;;-147.53;100.00;57128.34;10103349;29;20052;-82
2023/03/06 15:54:00;;;;;;;0.20;0.20;;;;;;;-147.53;100.00;57128.34;10120905;29;20072;-82
2023/03/06 15:59:22;;;;;;;0.95;0.30;;;;;;;-147.53;100.00;57128.34;10095809;29;20465;-83
2023/03/06 16:04:23;;;;;;;2.50;1.23;;;;;;;-147.53;100.00;57128.34;10097209;29;20932;-84
2023/03/06 16:09:25;;;;;;;1.77;0.98;;;;;;;-147.53;100.00;57128.34;10105053;29;20135;-83
2023/03/06 16:14:27;;;;;;;1.65;0.73;;;;;;;-147.53;100.00;57128.34;10116932;29;20513;-85
2023/03/06 16:19:29;;;;;;;2.92;1.27;;;;;;;-147.53;100.00;57128.34;10115305;29;20055;-85
2023/03/06 16:24:31;;;;;;;1.15;0.75;;;;;;;-147.53;100.00;57128.34;10118041;29;20045;-85
2023/03/06 16:29:33;;;;;;;0.50;0.50;;;;;;;-147.53;100.00;57128.34;10118151;29;20056;-83
2023/03/06 16:34:35;;;;;;;0.38;0.32;;;;;;;-147.53;100.00;57128.34;10120032;29;20546;-83
2023/03/06 16:39:36;;;;;;;2.35;1.10;;;;;;;-147.53;100.00;57128.34;10125534;29;20049;-83
2023/03/06 16:44:38;;;;;;;0.32;0.32;;;;;;;-147.53;100.00;57128.34;10120944;29;20045;-84
2023/03/06 16:49:40;;;;;;;1.10;0.60;;;;;;;-147.53;100.00;57128.34;10118803;29;20057;-83
2023/03/06 16:54:41;;;;;;;0.65;0.57;;;;;;;-147.53;100.00;57128.34;10099508;29;20116;-83
2023/03/06 16:59:45;;;;;;;0.80;0.43;;;;;;;-147.53;100.00;57128.34;10105387;29;20544;-83
2023/03/06 17:04:47;;;;;;;0.20;0.20;;;;;;;-147.53;100.00;57128.34;10105800;29;20080;-84
2023/03/06 17:09:49;;;;;;;1.00;0.68;;;;;;;-147.53;100.00;57128.34;10096670;29;20063;-84
2023/03/06 17:14:53;;;;;;;2.63;0.80;;;;;;;-147.53;100.00;57128.34;10094733;29;20497;-85
2023/03/06 17:19:55;;;;;;;0.50;0.47;;;;;;;-147.53;100.00;57128.34;10114284;29;20087;-85
2023/03/06 17:24:56;;;;;;;1.17;0.82;;;;;;;-147.53;100.00;57128.34;10122499;29;20847;-85
2023/03/06 17:29:59;;;;;;;2.10;1.08;;;;;;;-147.53;100.00;57128.34;10126466;29;20056;-84
2023/03/06 17:35:00;;;;;;;1.60;0.50;;;;;;;-147.53;100.00;57128.34;10132734;29;20053;-84
2023/03/06 17:40:05;;;;;;;0.70;0.63;;;;;;;-147.53;100.00;57128.34;10100307;29;20059;-83
2023/03/06 17:45:08;;;;;;;0.38;0.38;;;;;;;-147.53;100.00;57128.34;10129781;29;20053;-83
2023/03/06 17:50:10;;;;;;;0.60;0.60;;;;;;;-147.53;100.00;57128.34;10127431;29;20052;-83
2023/03/06 17:55:12;;;;;;;0.30;0.30;;;;;;;-147.53;100.00;57128.34;10123781;29;20061;-83
2023/03/06 18:00:15;;;;;;;0.28;0.20;;;;;;;-147.53;100.00;57128.34;10122388;29;20064;-84
2023/03/06 18:05:19;;;;;;;0.20;0.20;;;;;;;-147.53;100.00;57128.34;10107324;29;20576;-83
2023/03/06 18:10:20;;;;;;;0.43;0.38;;;;;;;-147.53;100.00;57128.34;10125657;29;20061;-84
2023/03/06 18:15:22;;;;;;;0.50;0.50;;;;;;;-147.53;100.00;57128.34;10129594;29;20055;-83
2023/03/06 18:20:24;;;;;;;0.47;0.40;;;;;;;-147.53;100.00;57128.34;10128436;29;20056;-84
2023/03/06 18:25:26;;;;;;;0.38;0.38;;;;;;;-147.53;100.00;57128.34;10108075;29;20053;-84
2023/03/06 18:30:28;;;;;;;0.50;0.50;;;;;;;-147.53;100.00;57128.34;10084753;29;20068;-84
2023/03/06 18:35:29;;;;;;;0.40;0.40;;;;;;;-147.53;100.00;57128.34;10126121;29;20052;-84
2023/03/06 18:40:31;;;;;;;0.55;0.52;;;;;;;-147.53;100.00;57128.34;10122686;29;20068;-83
2023/03/06 18:45:33;;;;;;;0.65;0.60;;;;;;;-147.53;100.00;57128.34;10127311;29;20053;-84
2023/03/06 18:50:35;;;;;;;0.75;0.40;;;;;;;-147.53;100.00;57128.34;10124638;29;20453;-83
2023/03/06 18:55:37;;;;;;;0.70;0.55;;;;;;;-147.53;100.00;57128.34;10122755;29;20053;-84
2023/03/06 19:00:39;;;;;;;0.40;0.40;;;;;;;-147.53;100.00;57128.34;10110691;29;20054;-84
2023/03/06 19:05:44;;;;;;;0.75;0.50;;;;;;;-147.53;100.00;57128.34;10106435;29;20041;-83
2023/03/06 19:10:46;;;;;;;0.30;0.30;;;;;;;-147.53;100.00;57128.34;10102023;29;20155;-83
2023/03/06 19:15:48;;;;;;;0.68;0.52;;;;;;;-147.53;100.00;57128.34;10098864;29;20074;-84
2023/03/06 19:20:49;;;;;;;0.98;0.60;;;;;;;-147.53;100.00;57128.34;10119805;29;20572;-84
2023/03/06 19:25:55;;;;;;;0.30;0.30;;;;;;;-147.53;100.00;57128.34;10122861;29;20055;-85
2023/03/06 19:30:57;;;;;;;0.50;0.45;;;;;;;-147.53;100.00;57128.34;10117977;29;20056;-84
2023/03/06 19:36:01;;;;;;;0.73;0.43;;;;;;;-147.53;100.00;57128.34;10118347;29;20168;-85
2023/03/06 19:41:03;;;;;;;0.70;0.43;;;;;;;-147.53;100.00;57128.34;10103427;29;20064;-85
2023/03/06 19:46:05;;;;;;;0.43;0.43;;;;;;;-147.53;100.00;57128.34;10122636;29;20513;-85
2023/03/06 19:51:07;;;;;;;0.20;0.20;;;;;;;-147.53;100.00;57128.34;10118921;29;20064;-86
2023/03/06 19:56:20;;;;;;;0.52;0.50;;;;;;;-147.53;100.00;57128.34;10119011;29;20057;-85
2023/03/06 20:01:24;;;;;;;0.55;0.50;;;;;;;-147.53;100.00;57128.34;10121191;29;20144;-85
2023/03/06 20:06:29;;;;;;;0.43;0.40;;;;;;;-147.53;100.00;57128.34;10115412;29;20089;-86
2023/03/06 20:11:31;;;;;;;0.43;0.43;;;;;;;-147.53;100.00;57128.34;10107974;29;20644;-86
2023/03/06 20:16:33;;;;;;;0.68;0.40;;;;;;;-147.53;100.00;57128.34;10110395;29;20533;-89
2023/03/06 20:21:36;;;;;;;0.60;0.60;;;;;;;-147.53;100.00;57128.34;10113880;29;20053;-85
2023/03/06 20:26:38;;;;;;;0.85;0.75;;;;;;;-147.53;100.00;57128.34;10114719;29;20394;-84
2023/03/06 20:31:39;;;;;;;0.25;0.25;;;;;;;-147.53;100.00;57128.34;10110751;29;20060;-87
2023/03/06 20:36:41;;;;;;;1.35;0.95;;;;;;;-147.53;100.00;57128.34;10108401;29;20067;-85
2023/03/06 20:41:43;;;;;;;2.15;1.35;;;;;;;-147.53;100.00;57128.34;10118630;29;20049;-85
2023/03/06 20:46:45;;;;;;;1.15;0.85;;;;;;;-147.53;100.00;57128.34;10118802;29;20058;-86
2023/03/06 20:51:47;;;;;;;1.50;1.15;;;;;;;-147.53;100.00;57128.34;10123818;29;20053;-85
2023/03/06 20:56:49;;;;;;;4.45;2.75;;;;;;;-147.53;100.00;57128.34;10098632;29;20104;-86
2023/03/06 21:01:50;;;;;;;3.28;1.45;;;;;;;-147.53;100.00;57128.34;10101374;29;20439;-85
2023/03/06 21:06:53;;;;;;;4.18;1.10;;;;;;;-147.53;100.00;57128.34;10103970;29;20561;-86
2023/03/06 21:11:54;;;;;;;1.40;1.02;;;;;;;-147.53;100.00;57128.34;10078134;29;20840;-86
2023/03/06 21:16:56;;;;;;;2.63;1.70;;;;;;;-147.53;100.00;57128.34;10105133;29;20417;-87
2023/03/06 21:21:57;;;;;;;1.92;0.90;;;;;;;-147.53;100.00;57128.34;10124644;29;20044;-86
2023/03/06 21:26:59;;;;;;;2.65;1.40;;;;;;;-147.53;100.00;57128.34;10124078;29;20052;-86
2023/03/06 21:32:00;;;;;;;3.88;1.80;;;;;;;-147.53;100.00;57128.34;10123055;29;20053;-86
2023/03/06 21:37:02;;;;;;;2.33;1.48;;;;;;;-147.53;100.00;57128.34;10123030;29;20053;-85
2023/03/06 21:42:04;;;;;;;3.65;2.53;;;;;;;-147.53;100.00;57128.34;10124405;29;20394;-85
2023/03/06 21:47:06;;;;;;;3.05;1.30;;;;;;;-147.53;100.00;57128.34;10122835;29;20615;-86
2023/03/06 21:52:07;;;;;;;2.55;1.77;;;;;;;-147.53;100.00;57128.34;10124682;29;20045;-86
2023/03/06 21:57:09;;;;;;;5.55;2.25;;;;;;;-147.53;100.00;57128.34;10122686;29;20671;-86
2023/03/06 22:02:11;;;;;;;2.60;1.65;;;;;;;-147.53;100.00;57128.34;10121461;29;20120;-86
2023/03/06 22:07:13;;;;;;;2.40;1.73;;;;;;;-147.53;100.00;57128.34;10122149;29;20052;-85
2023/03/06 22:12:14;;;;;;;6.63;2.92;;;;;;;-147.53;100.00;57128.34;10123262;29;20053;-85
2023/03/06 22:17:16;;;;;;;3.25;2.00;;;;;;;-147.53;100.00;57128.34;10122971;29;20147;-85
2023/03/06 22:22:18;;;;;;;3.35;2.13;;;;;;;-147.53;100.00;57128.34;10122652;29;20058;-85
2023/03/06 22:27:20;;;;;;;5.80;3.33;;;;;;;-147.53;100.00;57128.34;10125086;29;20147;-85
2023/03/06 22:32:22;;;;;;;8.15;3.63;;;;;;;-147.53;100.00;57128.34;10130128;29;20053;-85
2023/03/06 22:37:24;;;;;;;4.75;2.63;;;;;;;-147.53;100.00;57128.34;10125923;29;20056;-85
2023/03/06 22:42:25;;;;;;;4.65;3.20;;;;;;;-147.53;100.00;57128.34;10120299;29;20535;-85
2023/03/06 22:47:27;;;;;;;7.00;3.22;;;;;;;-147.53;100.00;57128.34;10119433;29;20064;-87
2023/03/06 22:52:29;;;;;;;2.95;1.88;;;;;;;-147.53;100.00;57128.34;10113237;29;20132;-86
2023/03/06 22:57:30;;;;;;;2.40;1.85;;;;;;;-147.53;100.00;57128.34;10121711;29;20520;-86
2023/03/06 23:02:33;;;;;;;5.90;3.38;;;;;;;-147.53;100.00;57128.34;10105030;29;20109;-85
2023/03/06 23:07:35;;;;;;;3.40;2.08;;;;;;;-147.53;100.00;57128.34;10104172;29;20079;-85
2023/03/06 23:12:40;;;;;;;2.42;1.60;;;;;;;-147.53;100.00;57128.34;10120622;29;20052;-85
2023/03/06 23:18:00;;;;;;;6.72;3.70;;;;;;;-147.53;100.00;57128.34;10119377;29;20560;-85
2023/03/06 23:23:21;;;;;;;6.65;4.25;;;;;;;-147.53;100.00;57128.34;10119985;29;20072;-85
2023/03/06 23:28:23;;;;;;;7.70;3.53;;;;;;;-147.53;100.00;57128.34;10120011;29;20052;-85
2023/03/06 23:33:25;;;;;;;4.47;3.28;;;;;;;-147.53;100.00;57128.34;10118663;29;20048;-85
2023/03/06 23:38:28;;;;;;;4.35;2.35;;;;;;;-147.53;100.00;57128.34;10117885;29;20060;-85
2023/03/06 23:43:30;;;;;;;7.38;2.28;;;;;;;-147.53;100.00;57128.34;10102452;29;20089;-85
2023/03/06 23:48:34;;;;;;;4.78;3.58;;;;;;;-147.53;100.00;57128.34;10117314;29;20056;-85
2023/03/06 23:53:36;;;;;;;8.00;3.78;;;;;;;-147.53;100.00;57128.34;10119117;29;20097;-85
2023/03/06 23:58:38;;;;;;;2.97;2.30;;;;;;;-147.53;100.00;57128.34;10119262;29;20060;-85
